WetterOnline ( https://www.wetteronline.de )

Wetter aktuell Kappeln

Aktuelles Wetter: Schönhagen (Ostseebad) (2m)

6-stündlich | Neueste Meldungen
Ortszeit Temperatur Wetter
Fr, 30.09. 2:00 10.0° C bedeckt
Do, 29.09. 20:00 10.7° C bewölkt
Do, 29.09. 14:00 11.5° C Sprühregen
Do, 29.09. 8:00 8.5° C leichter Regen
Do, 29.09. 2:00 7.9° C bedeckt
Mi, 28.09. 20:00 9.3° C wolkig
Mi, 28.09. 14:00 11.6° C wolkig
Mi, 28.09. 8:00 7.9° C Nebel
Ortszeit Temperatur Wetter
Fr, 30.09. 4:00 9.8° C leichter Regen
Fr, 30.09. 3:50 9.8° C leichter Regen
Fr, 30.09. 3:40 9.8° C bedeckt
Fr, 30.09. 3:30 10.0° C Sprühregen
Fr, 30.09. 3:20 10.0° C Sprühregen
Fr, 30.09. 3:10 10.0° C Sprühregen
Fr, 30.09. 3:00 10.0° C Sprühregen
Fr, 30.09. 2:30 9.9° C bedeckt
Fr, 30.09. 2:00 10.0° C bedeckt
Fr, 30.09. 1:30 10.1° C bewölkt
Fr, 30.09. 1:00 10.0° C bewölkt
Ortszeit Relative Feuchte Sichtweite
Fr, 30.09. 2:00 94% 19 km
Do, 29.09. 20:00 90% 55 km
Do, 29.09. 14:00 95% 60 km
Do, 29.09. 8:00 94% 15 km
Do, 29.09. 2:00 95% 11 km
Mi, 28.09. 20:00 89% 45 km
Mi, 28.09. 14:00 77% 35 km
Mi, 28.09. 8:00 99% 1.9 km
Ortszeit Relative Feuchte Sichtweite
Fr, 30.09. 4:00 95% 8 km
Fr, 30.09. 3:50 95% -
Fr, 30.09. 3:40 94% -
Fr, 30.09. 3:30 94% 18 km
Fr, 30.09. 3:20 94% -
Fr, 30.09. 3:10 94% -
Fr, 30.09. 3:00 95% 17 km
Fr, 30.09. 2:30 95% 21 km
Fr, 30.09. 2:00 94% 19 km
Fr, 30.09. 1:30 95% 22 km
Fr, 30.09. 1:00 94% 24 km
Ortszeit Niederschlagsmenge Niederschlagsart
Fr, 30.09. 2:00 0.1 l/m2 in 6 Std. Regen
Do, 29.09. 20:00 9 l/m2 in 12 Std. Regen
Do, 29.09. 14:00 8 l/m2 in 6 Std. Regen
Do, 29.09. 8:00 2 l/m2 in 12 Std. Regen
Do, 29.09. 2:00 0.0 l/m2 in 6 Std. -
Mi, 28.09. 20:00 0.0 l/m2 in 12 Std. -
Mi, 28.09. 14:00 0.0 l/m2 in 6 Std. -
Mi, 28.09. 8:00 0.1 l/m2 in 12 Std. -
Ortszeit Niederschlagsmenge Niederschlagsart
Fr, 30.09. 4:00 <0.05 l/m2 in 1 Std. Regen
Fr, 30.09. 3:50 keine Meldung -
Fr, 30.09. 3:40 keine Meldung -
Fr, 30.09. 3:30 <0.05 l/m2 in 1 Std. -
Fr, 30.09. 3:20 keine Meldung -
Fr, 30.09. 3:10 keine Meldung -
Fr, 30.09. 3:00 <0.05 l/m2 in 1 Std. Sprühregen
Fr, 30.09. 2:30 0.0 l/m2 in 1 Std. -
Fr, 30.09. 2:00 0.0 l/m2 in 1 Std. Regen
Fr, 30.09. 1:30 0.0 l/m2 in 1 Std. -
Fr, 30.09. 1:00 0.0 l/m2 in 1 Std. -
Ortszeit Stärke Spitze Richtung
km/h Bft. km/h Grad Sektor
Fr, 30.09. 2:00 7 2 18 210° SW
Do, 29.09. 20:00 11 2 29 300° NW
Do, 29.09. 14:00 9 2 35 280° W
Do, 29.09. 8:00 11 2 18 260° W
Do, 29.09. 2:00 11 2 14 250° W
Mi, 28.09. 20:00 7 2 19 280° W
Mi, 28.09. 14:00 9 2 19 260° W
Mi, 28.09. 8:00 11 2 22 230° SW
Ortszeit Stärke Spitze Richtung
km/h Bft. km/h Grad Sektor
Fr, 30.09. 4:00 11 2 14 220° SW
Fr, 30.09. 3:50 11 2 - 220° SW
Fr, 30.09. 3:40 9 2 - 210° SW
Fr, 30.09. 3:30 11 2 14 230° SW
Fr, 30.09. 3:20 11 2 - 230° SW
Fr, 30.09. 3:10 11 2 - 230° SW
Fr, 30.09. 3:00 9 2 15 220° SW
Fr, 30.09. 2:30 9 2 13 220° SW
Fr, 30.09. 2:00 7 2 14 210° SW
Fr, 30.09. 1:30 7 2 14 220° SW
Fr, 30.09. 1:00 11 2 19 240° SW
Ortszeit Untergrenze Bedeckung Gattung
total tief tief mittel hoch
Fr, 30.09. 2:00 210 m 8/8 8/8 - - -
Do, 29.09. 20:00 480 m 7/8 7/8 - - -
Do, 29.09. 14:00 240 m 7/8 7/8 - - -
Do, 29.09. 8:00 30 m 8/8 8/8 - - -
Do, 29.09. 2:00 4200 m 8/8 8/8 - - -
Mi, 28.09. 20:00 1020 m 7/8 1/8 - - -
Mi, 28.09. 14:00 420 m 7/8 3/8 - - -
Mi, 28.09. 8:00 30 m 7/8 7/8 - - -
Ortszeit Bedeckungsgrad in Achtel und Wolkenuntergrenze
Fr, 30.09. 4:00 3(1470m) 8(1500m)
Fr, 30.09. 3:50 3(1470m) 8(1500m)
Fr, 30.09. 3:40 8
Fr, 30.09. 3:30 7(330m) 8(1500m)
Fr, 30.09. 3:20 7(330m) 8(1500m)
Fr, 30.09. 3:10 8
Fr, 30.09. 3:00 8(270m)
Fr, 30.09. 2:30 7(240m) 7(900m) 8(2100m)
Fr, 30.09. 2:00 8(210m)
Fr, 30.09. 1:30 6(210m) 7(1170m) 7(2100m)
Fr, 30.09. 1:00 7(2100m)
Ortszeit Luftdruck NN (hPa) Tendenz (hPa in 3 Std.)
Fr, 30.09. 2:00 1005 + 1,1
Do, 29.09. 20:00 1002 + 1,8
Do, 29.09. 14:00 1000 + 0,8
Do, 29.09. 8:00 999 + 0,5
Do, 29.09. 2:00 998 + 0,4
Mi, 28.09. 20:00 997 + 0,8
Mi, 28.09. 14:00 996 + 0,8
Mi, 28.09. 8:00 994 0,0
Ortszeit Luftdruck NN (hPa) Tendenz (hPa in 3 Std.)
Fr, 30.09. 4:00 1005 + 0,7
Fr, 30.09. 3:50 1005 keine Meldung
Fr, 30.09. 3:40 1005 keine Meldung
Fr, 30.09. 3:30 1005 + 0,7
Fr, 30.09. 3:20 1005 keine Meldung
Fr, 30.09. 3:10 1005 keine Meldung
Fr, 30.09. 3:00 1005 + 0,7
Fr, 30.09. 2:30 1005 + 0,7
Fr, 30.09. 2:00 1005 + 1,1
Fr, 30.09. 1:30 1005 + 1,3
Fr, 30.09. 1:00 1005 + 1,3
Ortszeit Schneehöhe (cm)
Fr, 30.09. 2:00 0
Do, 29.09. 20:00 0
Do, 29.09. 14:00 0
Do, 29.09. 8:00 0
Do, 29.09. 2:00 0
Mi, 28.09. 20:00 0
Mi, 28.09. 14:00 0
Mi, 28.09. 8:00 0
Ortszeit Schneehöhe (cm)
Fr, 30.09. 4:00 0
Fr, 30.09. 3:50 0
Fr, 30.09. 3:40 0
Fr, 30.09. 3:30 0
Fr, 30.09. 3:20 0
Fr, 30.09. 3:10 0
Fr, 30.09. 3:00 0
Fr, 30.09. 2:30 0
Fr, 30.09. 2:00 0
Fr, 30.09. 1:30 0
Fr, 30.09. 1:00 0
Link zu dieser Seite / Seite empfehlen

Das Wetter in ...